sensor_id;sensor_type;location;lat;lon;timestamp;temperature;humidity
14252;DHT22;7210;51.502;10.722;2023-11-19T00:01:51;4.60;67.30
14252;DHT22;7210;51.502;10.722;2023-11-19T00:04:18;4.60;67.70
14252;DHT22;7210;51.502;10.722;2023-11-19T00:06:45;4.60;68.30
14252;DHT22;7210;51.502;10.722;2023-11-19T00:09:15;4.60;68.50
14252;DHT22;7210;51.502;10.722;2023-11-19T00:11:42;4.60;68.60
14252;DHT22;7210;51.502;10.722;2023-11-19T00:14:10;4.60;69.30
14252;DHT22;7210;51.502;10.722;2023-11-19T00:16:38;4.70;67.80
14252;DHT22;7210;51.502;10.722;2023-11-19T00:19:05;4.70;68.00
14252;DHT22;7210;51.502;10.722;2023-11-19T00:21:34;4.60;67.80
14252;DHT22;7210;51.502;10.722;2023-11-19T00:24:02;4.70;66.60
14252;DHT22;7210;51.502;10.722;2023-11-19T00:26:33;4.60;66.30
14252;DHT22;7210;51.502;10.722;2023-11-19T00:29:01;4.60;66.10
14252;DHT22;7210;51.502;10.722;2023-11-19T00:31:28;4.60;65.00
14252;DHT22;7210;51.502;10.722;2023-11-19T00:33:56;4.60;64.80
14252;DHT22;7210;51.502;10.722;2023-11-19T00:36:23;4.60;64.90
14252;DHT22;7210;51.502;10.722;2023-11-19T00:38:51;4.60;64.10
14252;DHT22;7210;51.502;10.722;2023-11-19T00:41:18;4.60;63.90
14252;DHT22;7210;51.502;10.722;2023-11-19T00:43:45;4.60;64.50
14252;DHT22;7210;51.502;10.722;2023-11-19T00:46:15;4.70;65.80
14252;DHT22;7210;51.502;10.722;2023-11-19T00:48:42;4.70;66.10
14252;DHT22;7210;51.502;10.722;2023-11-19T00:51:16;4.70;64.30
14252;DHT22;7210;51.502;10.722;2023-11-19T00:53:42;4.70;64.80
14252;DHT22;7210;51.502;10.722;2023-11-19T00:56:11;4.70;62.40
14252;DHT22;7210;51.502;10.722;2023-11-19T00:58:38;4.80;64.90
14252;DHT22;7210;51.502;10.722;2023-11-19T01:01:05;4.70;65.50
14252;DHT22;7210;51.502;10.722;2023-11-19T01:03:33;4.70;65.90
14252;DHT22;7210;51.502;10.722;2023-11-19T01:06:00;4.70;64.70
14252;DHT22;7210;51.502;10.722;2023-11-19T01:08:29;4.80;63.40
14252;DHT22;7210;51.502;10.722;2023-11-19T01:10:56;4.80;88.10
14252;DHT22;7210;51.502;10.722;2023-11-19T01:13:23;4.70;65.50
14252;DHT22;7210;51.502;10.722;2023-11-19T01:15:51;4.80;66.10
14252;DHT22;7210;51.502;10.722;2023-11-19T01:18:18;4.70;65.00
14252;DHT22;7210;51.502;10.722;2023-11-19T01:20:46;4.80;68.60
14252;DHT22;7210;51.502;10.722;2023-11-19T01:23:13;4.70;73.60
14252;DHT22;7210;51.502;10.722;2023-11-19T01:25:41;4.70;66.90
14252;DHT22;7210;51.502;10.722;2023-11-19T01:28:09;4.90;74.70
14252;DHT22;7210;51.502;10.722;2023-11-19T01:30:35;4.90;89.00
14252;DHT22;7210;51.502;10.722;2023-11-19T01:33:02;4.80;99.90
14252;DHT22;7210;51.502;10.722;2023-11-19T01:35:30;4.80;99.90
14252;DHT22;7210;51.502;10.722;2023-11-19T01:37:57;4.80;99.90
14252;DHT22;7210;51.502;10.722;2023-11-19T01:40:24;4.80;99.90
14252;DHT22;7210;51.502;10.722;2023-11-19T01:42:52;4.80;99.30
14252;DHT22;7210;51.502;10.722;2023-11-19T01:45:27;4.80;99.90
14252;DHT22;7210;51.502;10.722;2023-11-19T01:47:55;4.80;93.30
14252;DHT22;7210;51.502;10.722;2023-11-19T01:50:22;4.80;99.90
14252;DHT22;7210;51.502;10.722;2023-11-19T01:52:50;4.80;86.80
14252;DHT22;7210;51.502;10.722;2023-11-19T01:55:20;4.80;92.80
14252;DHT22;7210;51.502;10.722;2023-11-19T01:57:48;4.80;90.00
14252;DHT22;7210;51.502;10.722;2023-11-19T02:00:19;4.70;83.90
14252;DHT22;7210;51.502;10.722;2023-11-19T02:02:55;4.80;80.50
14252;DHT22;7210;51.502;10.722;2023-11-19T02:05:23;4.80;79.10
14252;DHT22;7210;51.502;10.722;2023-11-19T02:07:50;4.80;80.90
14252;DHT22;7210;51.502;10.722;2023-11-19T02:10:27;4.80;82.30
14252;DHT22;7210;51.502;10.722;2023-11-19T02:12:54;4.90;80.90
14252;DHT22;7210;51.502;10.722;2023-11-19T02:15:23;4.90;81.90
14252;DHT22;7210;51.502;10.722;2023-11-19T02:17:50;4.90;85.20
14252;DHT22;7210;51.502;10.722;2023-11-19T02:20:18;4.90;82.50
14252;DHT22;7210;51.502;10.722;2023-11-19T02:22:46;4.80;77.40
14252;DHT22;7210;51.502;10.722;2023-11-19T02:25:19;4.90;75.30
14252;DHT22;7210;51.502;10.722;2023-11-19T02:27:57;4.90;77.20
14252;DHT22;7210;51.502;10.722;2023-11-19T02:30:25;4.90;79.20
14252;DHT22;7210;51.502;10.722;2023-11-19T02:32:53;4.90;74.70
14252;DHT22;7210;51.502;10.722;2023-11-19T02:35:22;4.90;97.50
14252;DHT22;7210;51.502;10.722;2023-11-19T02:37:49;4.90;92.10
14252;DHT22;7210;51.502;10.722;2023-11-19T02:40:16;4.90;64.20
14252;DHT22;7210;51.502;10.722;2023-11-19T02:42:44;4.80;58.60
14252;DHT22;7210;51.502;10.722;2023-11-19T02:45:12;4.80;53.00
14252;DHT22;7210;51.502;10.722;2023-11-19T02:47:40;4.80;42.30
14252;DHT22;7210;51.502;10.722;2023-11-19T02:50:15;4.80;33.60
14252;DHT22;7210;51.502;10.722;2023-11-19T02:52:42;4.80;23.80
14252;DHT22;7210;51.502;10.722;2023-11-19T02:55:15;4.80;13.30
14252;DHT22;7210;51.502;10.722;2023-11-19T02:57:45;4.80;1.00
14252;DHT22;7210;51.502;10.722;2023-11-19T03:00:17;4.80;1.00
14252;DHT22;7210;51.502;10.722;2023-11-19T03:02:45;4.80;1.00
14252;DHT22;7210;51.502;10.722;2023-11-19T03:05:14;4.90;1.00
14252;DHT22;7210;51.502;10.722;2023-11-19T03:07:42;5.00;1.00
14252;DHT22;7210;51.502;10.722;2023-11-19T03:10:10;4.90;1.00
14252;DHT22;7210;51.502;10.722;2023-11-19T03:12:39;4.90;1.00
14252;DHT22;7210;51.502;10.722;2023-11-19T03:15:07;4.80;1.00
14252;DHT22;7210;51.502;10.722;2023-11-19T03:17:38;4.80;1.00
14252;DHT22;7210;51.502;10.722;2023-11-19T03:20:07;4.80;1.00
14252;DHT22;7210;51.502;10.722;2023-11-19T03:22:36;4.90;1.00
14252;DHT22;7210;51.502;10.722;2023-11-19T03:25:04;4.80;1.00
14252;DHT22;7210;51.502;10.722;2023-11-19T03:27:34;4.90;1.00
14252;DHT22;7210;51.502;10.722;2023-11-19T03:30:01;4.90;1.00
14252;DHT22;7210;51.502;10.722;2023-11-19T03:32:30;4.90;1.00
14252;DHT22;7210;51.502;10.722;2023-11-19T03:34:59;5.00;1.00
14252;DHT22;7210;51.502;10.722;2023-11-19T03:37:26;4.90;1.00
14252;DHT22;7210;51.502;10.722;2023-11-19T03:39:53;5.00;1.00
14252;DHT22;7210;51.502;10.722;2023-11-19T03:42:21;5.00;1.00
14252;DHT22;7210;51.502;10.722;2023-11-19T03:44:48;5.00;1.00
14252;DHT22;7210;51.502;10.722;2023-11-19T03:47:21;5.00;1.00
14252;DHT22;7210;51.502;10.722;2023-11-19T03:49:49;5.00;1.00
14252;DHT22;7210;51.502;10.722;2023-11-19T03:52:18;5.00;1.00
14252;DHT22;7210;51.502;10.722;2023-11-19T03:54:45;5.00;1.00
14252;DHT22;7210;51.502;10.722;2023-11-19T03:57:12;5.00;1.00
14252;DHT22;7210;51.502;10.722;2023-11-19T03:59:45;5.00;1.00
14252;DHT22;7210;51.502;10.722;2023-11-19T04:02:12;5.00;1.00
14252;DHT22;7210;51.502;10.722;2023-11-19T04:04:39;5.00;1.00
14252;DHT22;7210;51.502;10.722;2023-11-19T04:07:06;5.00;1.00
14252;DHT22;7210;51.502;10.722;2023-11-19T04:09:34;5.00;1.00
14252;DHT22;7210;51.502;10.722;2023-11-19T04:12:03;5.00;1.00
14252;DHT22;7210;51.502;10.722;2023-11-19T04:14:30;5.10;1.00
14252;DHT22;7210;51.502;10.722;2023-11-19T04:16:58;5.10;1.00
14252;DHT22;7210;51.502;10.722;2023-11-19T04:19:27;5.10;1.00
14252;DHT22;7210;51.502;10.722;2023-11-19T04:21:56;5.10;1.00
14252;DHT22;7210;51.502;10.722;2023-11-19T04:24:23;5.10;1.00
14252;DHT22;7210;51.502;10.722;2023-11-19T04:26:51;5.10;1.00
14252;DHT22;7210;51.502;10.722;2023-11-19T04:29:18;5.10;1.00
14252;DHT22;7210;51.502;10.722;2023-11-19T04:31:46;5.10;1.00
14252;DHT22;7210;51.502;10.722;2023-11-19T04:34:13;5.10;1.00
14252;DHT22;7210;51.502;10.722;2023-11-19T04:36:40;5.10;1.00
14252;DHT22;7210;51.502;10.722;2023-11-19T04:39:07;5.10;1.00
14252;DHT22;7210;51.502;10.722;2023-11-19T04:41:46;5.10;1.00
14252;DHT22;7210;51.502;10.722;2023-11-19T04:44:15;5.20;1.00
14252;DHT22;7210;51.502;10.722;2023-11-19T04:46:43;5.20;1.00
14252;DHT22;7210;51.502;10.722;2023-11-19T04:49:11;5.20;1.00
14252;DHT22;7210;51.502;10.722;2023-11-19T04:51:39;5.30;1.00
14252;DHT22;7210;51.502;10.722;2023-11-19T04:54:08;5.20;1.00
14252;DHT22;7210;51.502;10.722;2023-11-19T04:56:35;5.20;1.00
14252;DHT22;7210;51.502;10.722;2023-11-19T04:59:03;5.20;1.00
14252;DHT22;7210;51.502;10.722;2023-11-19T05:01:32;5.20;1.00
14252;DHT22;7210;51.502;10.722;2023-11-19T05:04:00;5.20;1.00
14252;DHT22;7210;51.502;10.722;2023-11-19T05:06:27;5.30;1.00
14252;DHT22;7210;51.502;10.722;2023-11-19T05:08:55;5.30;1.00
14252;DHT22;7210;51.502;10.722;2023-11-19T05:11:22;5.20;1.00
14252;DHT22;7210;51.502;10.722;2023-11-19T05:13:49;5.30;1.00
14252;DHT22;7210;51.502;10.722;2023-11-19T05:16:16;5.30;1.00
14252;DHT22;7210;51.502;10.722;2023-11-19T05:18:45;5.40;1.00
14252;DHT22;7210;51.502;10.722;2023-11-19T05:21:13;5.40;1.00
14252;DHT22;7210;51.502;10.722;2023-11-19T05:23:45;5.40;1.00
14252;DHT22;7210;51.502;10.722;2023-11-19T05:26:17;5.40;1.00
14252;DHT22;7210;51.502;10.722;2023-11-19T05:28:45;5.40;1.00
14252;DHT22;7210;51.502;10.722;2023-11-19T05:31:12;5.40;1.00
14252;DHT22;7210;51.502;10.722;2023-11-19T05:33:39;5.40;1.00
14252;DHT22;7210;51.502;10.722;2023-11-19T05:36:08;5.40;1.00
14252;DHT22;7210;51.502;10.722;2023-11-19T05:38:35;5.40;1.00
14252;DHT22;7210;51.502;10.722;2023-11-19T05:41:03;5.50;1.00
14252;DHT22;7210;51.502;10.722;2023-11-19T05:43:30;5.50;1.00
14252;DHT22;7210;51.502;10.722;2023-11-19T05:45:57;5.60;1.00
14252;DHT22;7210;51.502;10.722;2023-11-19T05:48:27;5.70;1.00
14252;DHT22;7210;51.502;10.722;2023-11-19T05:50:54;6.00;99.90
14252;DHT22;7210;51.502;10.722;2023-11-19T05:53:23;6.20;99.90
14252;DHT22;7210;51.502;10.722;2023-11-19T05:55:51;6.40;99.90
14252;DHT22;7210;51.502;10.722;2023-11-19T05:58:23;6.40;99.90
14252;DHT22;7210;51.502;10.722;2023-11-19T06:00:51;6.40;99.90
14252;DHT22;7210;51.502;10.722;2023-11-19T06:03:21;6.60;99.90
14252;DHT22;7210;51.502;10.722;2023-11-19T06:05:48;6.80;99.90
14252;DHT22;7210;51.502;10.722;2023-11-19T06:08:15;6.90;99.90
14252;DHT22;7210;51.502;10.722;2023-11-19T06:10:44;7.00;99.90
14252;DHT22;7210;51.502;10.722;2023-11-19T06:13:12;7.20;99.90
14252;DHT22;7210;51.502;10.722;2023-11-19T06:15:41;7.40;99.90
14252;DHT22;7210;51.502;10.722;2023-11-19T06:18:08;7.50;99.90
14252;DHT22;7210;51.502;10.722;2023-11-19T06:20:35;7.60;99.90
14252;DHT22;7210;51.502;10.722;2023-11-19T06:23:02;7.80;99.90
14252;DHT22;7210;51.502;10.722;2023-11-19T06:25:29;7.70;99.90
14252;DHT22;7210;51.502;10.722;2023-11-19T06:27:58;7.80;1.00
14252;DHT22;7210;51.502;10.722;2023-11-19T06:30:25;7.80;1.00
14252;DHT22;7210;51.502;10.722;2023-11-19T06:32:54;7.90;1.00
14252;DHT22;7210;51.502;10.722;2023-11-19T06:35:21;8.00;1.00
14252;DHT22;7210;51.502;10.722;2023-11-19T06:37:48;8.20;1.00
14252;DHT22;7210;51.502;10.722;2023-11-19T06:40:15;8.30;1.00
14252;DHT22;7210;51.502;10.722;2023-11-19T06:42:42;8.40;1.00
14252;DHT22;7210;51.502;10.722;2023-11-19T06:45:11;8.30;1.00
14252;DHT22;7210;51.502;10.722;2023-11-19T06:47:38;8.30;1.00
14252;DHT22;7210;51.502;10.722;2023-11-19T06:50:06;8.20;1.00
14252;DHT22;7210;51.502;10.722;2023-11-19T06:52:35;8.30;1.00
14252;DHT22;7210;51.502;10.722;2023-11-19T06:55:03;8.40;1.00
14252;DHT22;7210;51.502;10.722;2023-11-19T06:57:30;8.40;1.00
14252;DHT22;7210;51.502;10.722;2023-11-19T06:59:58;8.30;1.00
14252;DHT22;7210;51.502;10.722;2023-11-19T07:02:26;8.20;1.00
14252;DHT22;7210;51.502;10.722;2023-11-19T07:04:53;8.20;1.00
14252;DHT22;7210;51.502;10.722;2023-11-19T07:07:20;8.20;1.00
14252;DHT22;7210;51.502;10.722;2023-11-19T07:09:47;8.20;1.00
14252;DHT22;7210;51.502;10.722;2023-11-19T07:12:14;8.20;1.00
14252;DHT22;7210;51.502;10.722;2023-11-19T07:14:42;8.20;1.00
14252;DHT22;7210;51.502;10.722;2023-11-19T07:17:09;8.20;1.00
14252;DHT22;7210;51.502;10.722;2023-11-19T07:19:37;8.20;1.00
14252;DHT22;7210;51.502;10.722;2023-11-19T07:22:05;8.20;1.00
14252;DHT22;7210;51.502;10.722;2023-11-19T07:24:32;8.30;1.00
14252;DHT22;7210;51.502;10.722;2023-11-19T07:27:00;8.40;1.00
14252;DHT22;7210;51.502;10.722;2023-11-19T07:29:29;8.50;1.00
14252;DHT22;7210;51.502;10.722;2023-11-19T07:31:57;8.50;1.00
14252;DHT22;7210;51.502;10.722;2023-11-19T07:34:27;8.50;1.00
14252;DHT22;7210;51.502;10.722;2023-11-19T07:36:56;8.60;1.00
14252;DHT22;7210;51.502;10.722;2023-11-19T07:39:27;8.80;1.00
14252;DHT22;7210;51.502;10.722;2023-11-19T07:41:54;9.00;3.70
14252;DHT22;7210;51.502;10.722;2023-11-19T07:44:21;9.00;51.50
14252;DHT22;7210;51.502;10.722;2023-11-19T07:46:49;9.10;57.70
14252;DHT22;7210;51.502;10.722;2023-11-19T07:49:16;9.20;84.90
14252;DHT22;7210;51.502;10.722;2023-11-19T07:51:43;9.30;97.10
14252;DHT22;7210;51.502;10.722;2023-11-19T07:54:17;9.30;99.90
14252;DHT22;7210;51.502;10.722;2023-11-19T07:56:44;9.30;99.90
14252;DHT22;7210;51.502;10.722;2023-11-19T07:59:11;9.40;99.90
14252;DHT22;7210;51.502;10.722;2023-11-19T08:01:39;9.40;99.90
14252;DHT22;7210;51.502;10.722;2023-11-19T08:04:06;9.50;99.90
14252;DHT22;7210;51.502;10.722;2023-11-19T08:06:33;9.50;99.90
14252;DHT22;7210;51.502;10.722;2023-11-19T08:09:02;9.50;99.90
14252;DHT22;7210;51.502;10.722;2023-11-19T08:11:30;9.50;99.90
14252;DHT22;7210;51.502;10.722;2023-11-19T08:13:57;9.40;99.90
14252;DHT22;7210;51.502;10.722;2023-11-19T08:16:27;9.40;99.90
14252;DHT22;7210;51.502;10.722;2023-11-19T08:18:54;9.50;99.90
14252;DHT22;7210;51.502;10.722;2023-11-19T08:21:24;9.50;99.90
14252;DHT22;7210;51.502;10.722;2023-11-19T08:23:52;9.50;99.90
14252;DHT22;7210;51.502;10.722;2023-11-19T08:26:19;9.50;99.90
14252;DHT22;7210;51.502;10.722;2023-11-19T08:28:53;9.70;99.90
14252;DHT22;7210;51.502;10.722;2023-11-19T08:31:19;9.80;99.90
14252;DHT22;7210;51.502;10.722;2023-11-19T08:33:57;9.90;99.90
14252;DHT22;7210;51.502;10.722;2023-11-19T08:36:24;10.00;99.90
14252;DHT22;7210;51.502;10.722;2023-11-19T08:38:51;10.00;99.90
14252;DHT22;7210;51.502;10.722;2023-11-19T08:41:18;10.10;99.90
14252;DHT22;7210;51.502;10.722;2023-11-19T08:43:45;10.10;99.90
14252;DHT22;7210;51.502;10.722;2023-11-19T08:46:14;10.10;99.90
14252;DHT22;7210;51.502;10.722;2023-11-19T08:48:41;10.20;99.90
14252;DHT22;7210;51.502;10.722;2023-11-19T08:51:08;10.20;99.90
14252;DHT22;7210;51.502;10.722;2023-11-19T08:53:39;10.20;99.90
14252;DHT22;7210;51.502;10.722;2023-11-19T08:56:09;10.40;99.90
14252;DHT22;7210;51.502;10.722;2023-11-19T08:58:36;10.60;99.90
14252;DHT22;7210;51.502;10.722;2023-11-19T09:01:03;10.80;99.90
14252;DHT22;7210;51.502;10.722;2023-11-19T09:03:32;10.90;99.90
14252;DHT22;7210;51.502;10.722;2023-11-19T09:06:03;11.00;99.90
14252;DHT22;7210;51.502;10.722;2023-11-19T09:08:31;11.00;99.90
14252;DHT22;7210;51.502;10.722;2023-11-19T09:10:58;11.10;99.90
14252;DHT22;7210;51.502;10.722;2023-11-19T09:13:25;11.10;99.90
14252;DHT22;7210;51.502;10.722;2023-11-19T09:15:51;11.10;99.90
14252;DHT22;7210;51.502;10.722;2023-11-19T09:18:18;11.20;99.90
14252;DHT22;7210;51.502;10.722;2023-11-19T09:20:47;11.40;99.90
14252;DHT22;7210;51.502;10.722;2023-11-19T09:23:15;11.40;99.90
14252;DHT22;7210;51.502;10.722;2023-11-19T09:25:42;11.40;99.90
14252;DHT22;7210;51.502;10.722;2023-11-19T09:28:09;11.40;99.90
14252;DHT22;7210;51.502;10.722;2023-11-19T09:30:39;11.40;99.90
14252;DHT22;7210;51.502;10.722;2023-11-19T09:33:09;11.30;99.90
14252;DHT22;7210;51.502;10.722;2023-11-19T09:35:36;11.40;99.90
14252;DHT22;7210;51.502;10.722;2023-11-19T09:38:05;11.70;99.90
14252;DHT22;7210;51.502;10.722;2023-11-19T09:40:33;11.80;99.90
14252;DHT22;7210;51.502;10.722;2023-11-19T09:43:03;11.90;99.90
14252;DHT22;7210;51.502;10.722;2023-11-19T09:45:32;11.90;99.90
14252;DHT22;7210;51.502;10.722;2023-11-19T09:48:09;11.90;99.90
14252;DHT22;7210;51.502;10.722;2023-11-19T09:50:37;11.90;99.90
14252;DHT22;7210;51.502;10.722;2023-11-19T09:53:06;11.80;99.90
14252;DHT22;7210;51.502;10.722;2023-11-19T09:55:33;11.70;99.90
14252;DHT22;7210;51.502;10.722;2023-11-19T09:58:01;11.50;99.90
14252;DHT22;7210;51.502;10.722;2023-11-19T10:00:34;11.30;99.90
14252;DHT22;7210;51.502;10.722;2023-11-19T10:03:04;11.10;99.90
14252;DHT22;7210;51.502;10.722;2023-11-19T10:05:32;11.00;99.90
14252;DHT22;7210;51.502;10.722;2023-11-19T10:08:01;11.00;99.90
14252;DHT22;7210;51.502;10.722;2023-11-19T10:10:30;11.00;99.90
14252;DHT22;7210;51.502;10.722;2023-11-19T10:12:57;10.90;99.90
14252;DHT22;7210;51.502;10.722;2023-11-19T10:15:26;10.90;99.90
14252;DHT22;7210;51.502;10.722;2023-11-19T10:17:55;10.90;99.90
14252;DHT22;7210;51.502;10.722;2023-11-19T10:20:22;11.00;99.90
14252;DHT22;7210;51.502;10.722;2023-11-19T10:22:52;11.10;99.90
14252;DHT22;7210;51.502;10.722;2023-11-19T10:25:24;11.20;99.90
14252;DHT22;7210;51.502;10.722;2023-11-19T10:27:53;11.30;99.90
14252;DHT22;7210;51.502;10.722;2023-11-19T10:30:21;11.50;99.90
14252;DHT22;7210;51.502;10.722;2023-11-19T10:33:04;11.60;99.90
14252;DHT22;7210;51.502;10.722;2023-11-19T10:35:31;11.70;99.90
14252;DHT22;7210;51.502;10.722;2023-11-19T10:38:00;11.70;99.90
14252;DHT22;7210;51.502;10.722;2023-11-19T10:40:39;11.60;99.90
14252;DHT22;7210;51.502;10.722;2023-11-19T10:43:08;11.60;99.90
14252;DHT22;7210;51.502;10.722;2023-11-19T10:45:36;11.50;99.90
14252;DHT22;7210;51.502;10.722;2023-11-19T10:48:05;11.50;99.90
14252;DHT22;7210;51.502;10.722;2023-11-19T10:50:33;11.50;99.90
14252;DHT22;7210;51.502;10.722;2023-11-19T10:53:00;11.50;99.90
14252;DHT22;7210;51.502;10.722;2023-11-19T10:55:29;11.50;99.90
14252;DHT22;7210;51.502;10.722;2023-11-19T10:57:59;11.50;99.90
14252;DHT22;7210;51.502;10.722;2023-11-19T11:00:35;11.50;99.90
14252;DHT22;7210;51.502;10.722;2023-11-19T11:03:10;11.50;99.90
14252;DHT22;7210;51.502;10.722;2023-11-19T11:05:38;11.50;99.90
14252;DHT22;7210;51.502;10.722;2023-11-19T11:08:06;11.60;99.90
14252;DHT22;7210;51.502;10.722;2023-11-19T11:10:39;11.60;99.90
14252;DHT22;7210;51.502;10.722;2023-11-19T11:13:10;11.60;99.90
14252;DHT22;7210;51.502;10.722;2023-11-19T11:15:41;11.60;99.90
14252;DHT22;7210;51.502;10.722;2023-11-19T11:18:09;11.60;99.90
14252;DHT22;7210;51.502;10.722;2023-11-19T11:20:36;11.70;99.90
14252;DHT22;7210;51.502;10.722;2023-11-19T11:26:29;11.90;99.90
14252;DHT22;7210;51.502;10.722;2023-11-19T11:29:02;11.90;99.90
14252;DHT22;7210;51.502;10.722;2023-11-19T11:31:39;12.00;99.90
14252;DHT22;7210;51.502;10.722;2023-11-19T11:34:27;12.10;99.90
14252;DHT22;7210;51.502;10.722;2023-11-19T11:37:06;12.10;99.90
14252;DHT22;7210;51.502;10.722;2023-11-19T11:39:34;12.20;99.90
14252;DHT22;7210;51.502;10.722;2023-11-19T11:42:35;12.40;99.90
14252;DHT22;7210;51.502;10.722;2023-11-19T11:45:04;12.50;99.90
14252;DHT22;7210;51.502;10.722;2023-11-19T11:48:10;12.60;99.90
14252;DHT22;7210;51.502;10.722;2023-11-19T11:50:49;12.80;99.90
14252;DHT22;7210;51.502;10.722;2023-11-19T11:53:17;13.00;99.90
14252;DHT22;7210;51.502;10.722;2023-11-19T11:55:55;13.10;99.90
14252;DHT22;7210;51.502;10.722;2023-11-19T11:58:32;13.10;99.90
14252;DHT22;7210;51.502;10.722;2023-11-19T12:01:01;13.00;99.90
14252;DHT22;7210;51.502;10.722;2023-11-19T12:03:31;12.90;99.90
14252;DHT22;7210;51.502;10.722;2023-11-19T12:05:59;12.70;99.90
14252;DHT22;7210;51.502;10.722;2023-11-19T12:08:27;12.70;99.90
14252;DHT22;7210;51.502;10.722;2023-11-19T12:10:56;12.70;99.90
14252;DHT22;7210;51.502;10.722;2023-11-19T12:13:29;12.70;99.90
14252;DHT22;7210;51.502;10.722;2023-11-19T12:16:09;12.60;99.90
14252;DHT22;7210;51.502;10.722;2023-11-19T12:18:39;12.70;99.90
14252;DHT22;7210;51.502;10.722;2023-11-19T12:21:07;12.60;99.90
14252;DHT22;7210;51.502;10.722;2023-11-19T12:23:44;12.50;99.90
14252;DHT22;7210;51.502;10.722;2023-11-19T12:26:32;12.40;99.90
14252;DHT22;7210;51.502;10.722;2023-11-19T12:29:03;12.30;99.90
14252;DHT22;7210;51.502;10.722;2023-11-19T12:31:32;12.30;99.90
14252;DHT22;7210;51.502;10.722;2023-11-19T12:34:09;12.30;99.90
14252;DHT22;7210;51.502;10.722;2023-11-19T12:36:40;12.20;99.90
14252;DHT22;7210;51.502;10.722;2023-11-19T12:39:10;12.00;99.90
14252;DHT22;7210;51.502;10.722;2023-11-19T12:41:53;11.90;99.90
14252;DHT22;7210;51.502;10.722;2023-11-19T12:44:20;12.00;99.90
14252;DHT22;7210;51.502;10.722;2023-11-19T12:47:02;12.10;99.90
14252;DHT22;7210;51.502;10.722;2023-11-19T12:49:31;12.20;99.90
14252;DHT22;7210;51.502;10.722;2023-11-19T12:52:11;12.20;99.90
14252;DHT22;7210;51.502;10.722;2023-11-19T12:54:39;12.30;99.90
14252;DHT22;7210;51.502;10.722;2023-11-19T12:57:09;12.30;99.90
14252;DHT22;7210;51.502;10.722;2023-11-19T12:59:36;12.10;99.90
14252;DHT22;7210;51.502;10.722;2023-11-19T13:02:05;12.00;99.90
14252;DHT22;7210;51.502;10.722;2023-11-19T13:04:34;12.00;99.90
14252;DHT22;7210;51.502;10.722;2023-11-19T13:07:03;12.00;99.90
14252;DHT22;7210;51.502;10.722;2023-11-19T13:09:31;12.00;99.90
14252;DHT22;7210;51.502;10.722;2023-11-19T13:11:58;12.00;99.90
14252;DHT22;7210;51.502;10.722;2023-11-19T13:14:37;12.00;99.90
14252;DHT22;7210;51.502;10.722;2023-11-19T13:17:04;12.00;99.90
14252;DHT22;7210;51.502;10.722;2023-11-19T13:19:33;12.00;99.90
14252;DHT22;7210;51.502;10.722;2023-11-19T13:22:01;12.00;99.90
14252;DHT22;7210;51.502;10.722;2023-11-19T13:24:28;12.00;99.90
14252;DHT22;7210;51.502;10.722;2023-11-19T13:26:58;12.00;99.90
14252;DHT22;7210;51.502;10.722;2023-11-19T13:29:25;11.90;99.90
14252;DHT22;7210;51.502;10.722;2023-11-19T13:31:53;12.00;99.90
14252;DHT22;7210;51.502;10.722;2023-11-19T13:34:20;12.00;99.90
14252;DHT22;7210;51.502;10.722;2023-11-19T13:36:48;12.00;99.90
14252;DHT22;7210;51.502;10.722;2023-11-19T13:39:16;12.00;99.90
14252;DHT22;7210;51.502;10.722;2023-11-19T13:41:48;12.00;99.90
14252;DHT22;7210;51.502;10.722;2023-11-19T13:44:16;11.90;99.90
14252;DHT22;7210;51.502;10.722;2023-11-19T13:46:44;11.80;99.90
14252;DHT22;7210;51.502;10.722;2023-11-19T13:49:12;11.80;99.90
14252;DHT22;7210;51.502;10.722;2023-11-19T13:51:39;12.00;99.90
14252;DHT22;7210;51.502;10.722;2023-11-19T13:54:09;12.10;99.90
14252;DHT22;7210;51.502;10.722;2023-11-19T13:56:36;12.10;99.90
14252;DHT22;7210;51.502;10.722;2023-11-19T13:59:04;12.10;99.90
14252;DHT22;7210;51.502;10.722;2023-11-19T14:01:31;12.20;99.90
14252;DHT22;7210;51.502;10.722;2023-11-19T14:03:58;12.20;99.90
14252;DHT22;7210;51.502;10.722;2023-11-19T14:06:25;12.20;99.90
14252;DHT22;7210;51.502;10.722;2023-11-19T14:08:57;12.20;99.90
14252;DHT22;7210;51.502;10.722;2023-11-19T14:11:25;12.20;99.90
14252;DHT22;7210;51.502;10.722;2023-11-19T14:13:52;12.20;99.90
14252;DHT22;7210;51.502;10.722;2023-11-19T14:16:19;12.20;99.90
14252;DHT22;7210;51.502;10.722;2023-11-19T14:18:46;12.10;99.90
14252;DHT22;7210;51.502;10.722;2023-11-19T14:21:21;12.00;99.90
14252;DHT22;7210;51.502;10.722;2023-11-19T14:23:48;11.90;99.90
14252;DHT22;7210;51.502;10.722;2023-11-19T14:26:15;11.80;99.90
14252;DHT22;7210;51.502;10.722;2023-11-19T14:28:44;11.70;99.90
14252;DHT22;7210;51.502;10.722;2023-11-19T14:31:11;11.60;99.90
14252;DHT22;7210;51.502;10.722;2023-11-19T14:33:38;11.60;99.90
14252;DHT22;7210;51.502;10.722;2023-11-19T14:36:09;11.60;99.90
14252;DHT22;7210;51.502;10.722;2023-11-19T14:38:45;11.50;99.90
14252;DHT22;7210;51.502;10.722;2023-11-19T14:41:12;11.40;99.90
14252;DHT22;7210;51.502;10.722;2023-11-19T14:43:39;11.30;99.90
14252;DHT22;7210;51.502;10.722;2023-11-19T14:46:17;11.20;99.90
14252;DHT22;7210;51.502;10.722;2023-11-19T14:48:44;11.10;99.90
14252;DHT22;7210;51.502;10.722;2023-11-19T14:51:11;11.00;99.90
14252;DHT22;7210;51.502;10.722;2023-11-19T14:53:38;11.00;99.90
14252;DHT22;7210;51.502;10.722;2023-11-19T14:56:09;10.90;99.90
14252;DHT22;7210;51.502;10.722;2023-11-19T14:58:38;10.90;99.90
14252;DHT22;7210;51.502;10.722;2023-11-19T15:01:06;10.80;99.90
14252;DHT22;7210;51.502;10.722;2023-11-19T15:03:34;10.80;99.90
14252;DHT22;7210;51.502;10.722;2023-11-19T15:06:03;10.70;99.90
14252;DHT22;7210;51.502;10.722;2023-11-19T15:08:32;10.60;99.90
14252;DHT22;7210;51.502;10.722;2023-11-19T15:10:59;10.60;99.90
14252;DHT22;7210;51.502;10.722;2023-11-19T15:13:27;10.50;99.90
14252;DHT22;7210;51.502;10.722;2023-11-19T15:15:54;10.50;99.90
14252;DHT22;7210;51.502;10.722;2023-11-19T15:18:27;10.50;99.90
14252;DHT22;7210;51.502;10.722;2023-11-19T15:20:56;10.50;99.90
14252;DHT22;7210;51.502;10.722;2023-11-19T15:23:27;10.40;99.90
14252;DHT22;7210;51.502;10.722;2023-11-19T15:25:55;10.40;99.90
14252;DHT22;7210;51.502;10.722;2023-11-19T15:28:22;10.20;99.90
14252;DHT22;7210;51.502;10.722;2023-11-19T15:30:49;10.30;99.90
14252;DHT22;7210;51.502;10.722;2023-11-19T15:33:16;10.30;99.90
14252;DHT22;7210;51.502;10.722;2023-11-19T15:35:43;10.30;99.90
14252;DHT22;7210;51.502;10.722;2023-11-19T15:38:11;10.40;99.90
14252;DHT22;7210;51.502;10.722;2023-11-19T15:40:39;10.50;99.90
14252;DHT22;7210;51.502;10.722;2023-11-19T15:43:08;10.50;99.90
14252;DHT22;7210;51.502;10.722;2023-11-19T15:45:35;10.60;99.90
14252;DHT22;7210;51.502;10.722;2023-11-19T15:48:04;10.50;99.90
14252;DHT22;7210;51.502;10.722;2023-11-19T15:50:31;10.60;99.90
14252;DHT22;7210;51.502;10.722;2023-11-19T15:52:59;10.40;99.90
14252;DHT22;7210;51.502;10.722;2023-11-19T15:55:28;10.10;99.90
14252;DHT22;7210;51.502;10.722;2023-11-19T15:57:55;10.00;99.90